sensor_id;sensor_type;location;lat;lon;timestamp;pressure;altitude;pressure_sealevel;temperature;humidity
83140;BME280;73027;54.208;19.128;2023-12-29T00:01:31;100780.47;;;6.16;77.36
83140;BME280;73027;54.208;19.128;2023-12-29T00:03:56;100777.06;;;6.17;77.47
83140;BME280;73027;54.208;19.128;2023-12-29T00:06:22;100772.66;;;6.23;77.12
83140;BME280;73027;54.208;19.128;2023-12-29T00:08:47;100776.84;;;6.29;77.53
83140;BME280;73027;54.208;19.128;2023-12-29T00:11:17;100769.97;;;6.33;78.18
83140;BME280;73027;54.208;19.128;2023-12-29T00:13:42;100772.47;;;6.36;77.13
83140;BME280;73027;54.208;19.128;2023-12-29T00:16:07;100764.94;;;6.27;76.46
83140;BME280;73027;54.208;19.128;2023-12-29T00:18:33;100770.97;;;6.22;77.58
83140;BME280;73027;54.208;19.128;2023-12-29T00:20:58;100775.22;;;6.25;77.93
83140;BME280;73027;54.208;19.128;2023-12-29T00:23:24;100773.47;;;6.27;78.31
83140;BME280;73027;54.208;19.128;2023-12-29T00:25:49;100772.56;;;6.30;77.79
83140;BME280;73027;54.208;19.128;2023-12-29T00:28:14;100769.19;;;6.29;78.03
83140;BME280;73027;54.208;19.128;2023-12-29T00:30:40;100765.72;;;6.33;78.02
83140;BME280;73027;54.208;19.128;2023-12-29T00:33:05;100746.78;;;6.43;77.89
83140;BME280;73027;54.208;19.128;2023-12-29T00:35:31;100747.44;;;6.53;77.79
83140;BME280;73027;54.208;19.128;2023-12-29T00:37:57;100747.22;;;6.66;77.18
83140;BME280;73027;54.208;19.128;2023-12-29T00:40:23;100744.66;;;6.66;76.39
83140;BME280;73027;54.208;19.128;2023-12-29T00:42:48;100760.78;;;6.72;76.70
83140;BME280;73027;54.208;19.128;2023-12-29T00:45:13;100749.63;;;6.74;76.16
83140;BME280;73027;54.208;19.128;2023-12-29T00:47:39;100749.50;;;6.82;75.85
83140;BME280;73027;54.208;19.128;2023-12-29T00:50:04;100750.25;;;6.87;75.99
83140;BME280;73027;54.208;19.128;2023-12-29T00:52:30;100741.66;;;6.91;75.75
83140;BME280;73027;54.208;19.128;2023-12-29T00:54:55;100734.94;;;6.84;75.48
83140;BME280;73027;54.208;19.128;2023-12-29T00:57:21;100736.72;;;6.80;75.70
83140;BME280;73027;54.208;19.128;2023-12-29T00:59:47;100729.16;;;6.74;75.89
83140;BME280;73027;54.208;19.128;2023-12-29T01:02:12;100732.56;;;6.73;75.35
83140;BME280;73027;54.208;19.128;2023-12-29T01:04:38;100727.47;;;6.73;75.76
83140;BME280;73027;54.208;19.128;2023-12-29T01:07:04;100726.63;;;6.72;76.10
83140;BME280;73027;54.208;19.128;2023-12-29T01:09:30;100729.06;;;6.79;76.30
83140;BME280;73027;54.208;19.128;2023-12-29T01:11:55;100712.03;;;6.78;75.75
83140;BME280;73027;54.208;19.128;2023-12-29T01:14:21;100726.56;;;6.76;75.90
83140;BME280;73027;54.208;19.128;2023-12-29T01:16:46;100735.19;;;6.72;76.02
83140;BME280;73027;54.208;19.128;2023-12-29T01:19:11;100720.84;;;6.63;75.98
83140;BME280;73027;54.208;19.128;2023-12-29T01:21:37;100718.22;;;6.64;75.83
83140;BME280;73027;54.208;19.128;2023-12-29T01:24:03;100719.81;;;6.72;76.12
83140;BME280;73027;54.208;19.128;2023-12-29T01:26:30;100700.31;;;6.64;76.34
83140;BME280;73027;54.208;19.128;2023-12-29T01:28:55;100699.56;;;6.59;76.32
83140;BME280;73027;54.208;19.128;2023-12-29T01:31:22;100691.91;;;6.58;76.06
83140;BME280;73027;54.208;19.128;2023-12-29T01:33:47;100690.13;;;6.63;76.07
83140;BME280;73027;54.208;19.128;2023-12-29T01:36:19;100700.34;;;6.63;76.01
83140;BME280;73027;54.208;19.128;2023-12-29T01:38:44;100694.63;;;6.50;76.38
83140;BME280;73027;54.208;19.128;2023-12-29T01:41:10;100688.66;;;6.50;76.77
83140;BME280;73027;54.208;19.128;2023-12-29T01:43:35;100682.75;;;6.46;76.36
83140;BME280;73027;54.208;19.128;2023-12-29T01:46:01;100676.03;;;6.41;76.30
83140;BME280;73027;54.208;19.128;2023-12-29T01:48:26;100679.47;;;6.40;76.77
83140;BME280;73027;54.208;19.128;2023-12-29T01:50:53;100671.72;;;6.43;76.90
83140;BME280;73027;54.208;19.128;2023-12-29T01:53:19;100663.25;;;6.39;76.51
83140;BME280;73027;54.208;19.128;2023-12-29T01:55:45;100672.72;;;6.34;76.63
83140;BME280;73027;54.208;19.128;2023-12-29T01:58:11;100656.59;;;6.32;76.17
83140;BME280;73027;54.208;19.128;2023-12-29T02:00:36;100648.03;;;6.33;76.98
83140;BME280;73027;54.208;19.128;2023-12-29T02:03:02;100649.75;;;6.31;76.60
83140;BME280;73027;54.208;19.128;2023-12-29T02:05:29;100649.75;;;6.31;76.10
83140;BME280;73027;54.208;19.128;2023-12-29T02:07:56;100638.75;;;6.26;76.79
83140;BME280;73027;54.208;19.128;2023-12-29T02:10:21;100640.59;;;6.21;77.12
83140;BME280;73027;54.208;19.128;2023-12-29T02:12:50;100620.91;;;6.25;76.63
83140;BME280;73027;54.208;19.128;2023-12-29T02:15:16;100642.22;;;6.25;76.97
83140;BME280;73027;54.208;19.128;2023-12-29T02:17:45;100635.34;;;6.27;76.45
83140;BME280;73027;54.208;19.128;2023-12-29T02:20:13;100631.13;;;6.25;76.26
83140;BME280;73027;54.208;19.128;2023-12-29T02:22:38;100625.19;;;6.24;77.13
83140;BME280;73027;54.208;19.128;2023-12-29T02:25:05;100604.81;;;6.18;76.36
83140;BME280;73027;54.208;19.128;2023-12-29T02:27:48;100631.13;;;6.25;75.88
83140;BME280;73027;54.208;19.128;2023-12-29T02:30:22;100614.13;;;6.22;76.43
83140;BME280;73027;54.208;19.128;2023-12-29T02:32:54;100612.31;;;6.29;76.77
83140;BME280;73027;54.208;19.128;2023-12-29T02:35:24;100601.09;;;6.34;76.80
83140;BME280;73027;54.208;19.128;2023-12-29T02:37:51;100596.03;;;6.33;75.75
83140;BME280;73027;54.208;19.128;2023-12-29T02:40:16;100593.34;;;6.39;76.06
83140;BME280;73027;54.208;19.128;2023-12-29T02:42:46;100597.66;;;6.37;76.73
83140;BME280;73027;54.208;19.128;2023-12-29T02:45:13;100596.78;;;6.38;75.85
83140;BME280;73027;54.208;19.128;2023-12-29T02:47:38;100600.09;;;6.41;75.95
83140;BME280;73027;54.208;19.128;2023-12-29T02:50:04;100597.56;;;6.41;76.12
83140;BME280;73027;54.208;19.128;2023-12-29T02:52:29;100602.66;;;6.43;76.38
83140;BME280;73027;54.208;19.128;2023-12-29T02:54:55;100604.66;;;6.27;75.80
83140;BME280;73027;54.208;19.128;2023-12-29T02:57:20;100594.56;;;6.21;76.96
83140;BME280;73027;54.208;19.128;2023-12-29T02:59:46;100597.19;;;6.15;76.05
83140;BME280;73027;54.208;19.128;2023-12-29T03:02:11;100603.25;;;6.11;76.56
83140;BME280;73027;54.208;19.128;2023-12-29T03:04:36;100599.09;;;6.05;76.28
83140;BME280;73027;54.208;19.128;2023-12-29T03:07:02;100580.50;;;5.97;77.29
83140;BME280;73027;54.208;19.128;2023-12-29T03:09:27;100583.13;;;5.93;77.21
83140;BME280;73027;54.208;19.128;2023-12-29T03:11:53;100580.66;;;5.85;78.24
83140;BME280;73027;54.208;19.128;2023-12-29T03:14:18;100582.38;;;5.85;77.98
83140;BME280;73027;54.208;19.128;2023-12-29T03:16:43;100578.13;;;5.84;78.19
83140;BME280;73027;54.208;19.128;2023-12-29T03:19:09;100586.63;;;5.84;78.00
83140;BME280;73027;54.208;19.128;2023-12-29T03:21:34;100582.53;;;5.75;77.94
83140;BME280;73027;54.208;19.128;2023-12-29T03:24:00;100592.66;;;5.82;77.63
83140;BME280;73027;54.208;19.128;2023-12-29T03:26:25;100586.63;;;5.86;78.11
83140;BME280;73027;54.208;19.128;2023-12-29T03:28:50;100573.91;;;5.81;77.51
83140;BME280;73027;54.208;19.128;2023-12-29T03:31:16;100585.75;;;5.90;78.21
83140;BME280;73027;54.208;19.128;2023-12-29T03:33:41;100561.22;;;5.76;77.94
83140;BME280;73027;54.208;19.128;2023-12-29T03:36:08;100567.06;;;5.86;78.27
83140;BME280;73027;54.208;19.128;2023-12-29T03:38:34;100577.25;;;5.88;77.91
83140;BME280;73027;54.208;19.128;2023-12-29T03:40:59;100579.88;;;5.82;78.90
83140;BME280;73027;54.208;19.128;2023-12-29T03:43:25;100576.47;;;5.83;78.12
83140;BME280;73027;54.208;19.128;2023-12-29T03:45:50;100562.00;;;5.82;78.60
83140;BME280;73027;54.208;19.128;2023-12-29T03:48:16;100571.38;;;5.80;78.64
83140;BME280;73027;54.208;19.128;2023-12-29T03:50:41;100586.72;;;5.80;78.46
83140;BME280;73027;54.208;19.128;2023-12-29T03:53:07;100565.53;;;5.74;78.13
83140;BME280;73027;54.208;19.128;2023-12-29T03:55:32;100552.69;;;5.78;78.50
83140;BME280;73027;54.208;19.128;2023-12-29T03:57:57;100551.78;;;5.82;78.73
83140;BME280;73027;54.208;19.128;2023-12-29T04:00:24;100552.56;;;5.85;78.86
83140;BME280;73027;54.208;19.128;2023-12-29T04:02:49;100547.41;;;5.88;77.80
83140;BME280;73027;54.208;19.128;2023-12-29T04:05:14;100540.44;;;5.98;78.11
83140;BME280;73027;54.208;19.128;2023-12-29T04:07:40;100536.91;;;6.03;78.75
83140;BME280;73027;54.208;19.128;2023-12-29T04:10:06;100535.31;;;5.98;77.96
83140;BME280;73027;54.208;19.128;2023-12-29T04:12:32;100514.09;;;5.94;78.09
83140;BME280;73027;54.208;19.128;2023-12-29T04:14:58;100538.50;;;6.09;77.61
83140;BME280;73027;54.208;19.128;2023-12-29T04:17:23;100535.25;;;6.02;78.03
83140;BME280;73027;54.208;19.128;2023-12-29T04:19:48;100548.03;;;6.02;77.74
83140;BME280;73027;54.208;19.128;2023-12-29T04:22:14;100524.06;;;6.06;78.58
83140;BME280;73027;54.208;19.128;2023-12-29T04:24:39;100518.63;;;6.23;77.50
83140;BME280;73027;54.208;19.128;2023-12-29T04:27:05;100539.00;;;6.28;77.27
83140;BME280;73027;54.208;19.128;2023-12-29T04:29:30;100513.41;;;6.28;77.32
83140;BME280;73027;54.208;19.128;2023-12-29T04:31:56;100519.47;;;6.23;77.45
83140;BME280;73027;54.208;19.128;2023-12-29T04:34:21;100516.81;;;6.28;77.29
83140;BME280;73027;54.208;19.128;2023-12-29T04:36:47;100512.50;;;6.30;77.27
83140;BME280;73027;54.208;19.128;2023-12-29T04:39:12;100499.69;;;6.33;76.90
83140;BME280;73027;54.208;19.128;2023-12-29T04:41:38;100500.41;;;6.38;76.56
83140;BME280;73027;54.208;19.128;2023-12-29T04:44:03;100496.84;;;6.45;76.28
83140;BME280;73027;54.208;19.128;2023-12-29T04:46:29;100497.66;;;6.47;76.62
83140;BME280;73027;54.208;19.128;2023-12-29T04:48:54;100500.16;;;6.49;76.08
83140;BME280;73027;54.208;19.128;2023-12-29T04:51:20;100492.47;;;6.50;76.15
83140;BME280;73027;54.208;19.128;2023-12-29T04:53:46;100514.50;;;6.57;76.30
83140;BME280;73027;54.208;19.128;2023-12-29T04:56:11;100479.56;;;6.56;75.37
83140;BME280;73027;54.208;19.128;2023-12-29T04:58:37;100492.38;;;6.56;75.74
83140;BME280;73027;54.208;19.128;2023-12-29T05:01:03;100476.16;;;6.56;76.22
83140;BME280;73027;54.208;19.128;2023-12-29T05:03:28;100490.66;;;6.55;75.56
83140;BME280;73027;54.208;19.128;2023-12-29T05:05:54;100476.13;;;6.57;75.95
83140;BME280;73027;54.208;19.128;2023-12-29T05:08:19;100460.69;;;6.60;75.84
83140;BME280;73027;54.208;19.128;2023-12-29T05:10:44;100470.88;;;6.63;75.72
83140;BME280;73027;54.208;19.128;2023-12-29T05:13:10;100469.34;;;6.56;75.88
83140;BME280;73027;54.208;19.128;2023-12-29T05:15:35;100490.75;;;6.51;75.84
83140;BME280;73027;54.208;19.128;2023-12-29T05:18:01;100453.16;;;6.54;75.64
83140;BME280;73027;54.208;19.128;2023-12-29T05:20:26;100447.88;;;6.60;76.20
83140;BME280;73027;54.208;19.128;2023-12-29T05:22:52;100446.16;;;6.62;75.67
83140;BME280;73027;54.208;19.128;2023-12-29T05:25:17;100439.31;;;6.63;76.04
83140;BME280;73027;54.208;19.128;2023-12-29T05:27:43;100457.25;;;6.63;75.12
83140;BME280;73027;54.208;19.128;2023-12-29T05:30:09;100457.47;;;6.52;75.34
83140;BME280;73027;54.208;19.128;2023-12-29T05:32:35;100469.34;;;6.55;75.83
83140;BME280;73027;54.208;19.128;2023-12-29T05:35:00;100452.25;;;6.57;75.17
83140;BME280;73027;54.208;19.128;2023-12-29T05:37:26;100448.88;;;6.56;75.39
83140;BME280;73027;54.208;19.128;2023-12-29T05:39:51;100444.63;;;6.55;75.71
83140;BME280;73027;54.208;19.128;2023-12-29T05:42:17;100461.53;;;6.61;75.79
83140;BME280;73027;54.208;19.128;2023-12-29T05:44:42;100446.22;;;6.59;75.77
83140;BME280;73027;54.208;19.128;2023-12-29T05:47:09;100459.91;;;6.57;75.59
83140;BME280;73027;54.208;19.128;2023-12-29T05:49:35;100435.09;;;6.60;75.58
83140;BME280;73027;54.208;19.128;2023-12-29T05:52:07;100430.09;;;6.56;75.84
83140;BME280;73027;54.208;19.128;2023-12-29T05:54:33;100425.75;;;6.59;75.52
83140;BME280;73027;54.208;19.128;2023-12-29T05:56:59;100428.44;;;6.53;75.76
83140;BME280;73027;54.208;19.128;2023-12-29T05:59:24;100427.47;;;6.59;75.28
83140;BME280;73027;54.208;19.128;2023-12-29T06:01:50;100432.53;;;6.60;75.64
83140;BME280;73027;54.208;19.128;2023-12-29T06:04:15;100429.38;;;6.49;75.11
83140;BME280;73027;54.208;19.128;2023-12-29T06:06:43;100435.34;;;6.50;76.03
83140;BME280;73027;54.208;19.128;2023-12-29T06:09:09;100420.81;;;6.52;75.91
83140;BME280;73027;54.208;19.128;2023-12-29T06:11:35;100418.94;;;6.60;75.43
83140;BME280;73027;54.208;19.128;2023-12-29T06:14:01;100428.31;;;6.59;75.22
83140;BME280;73027;54.208;19.128;2023-12-29T06:16:26;100437.66;;;6.60;75.33
83140;BME280;73027;54.208;19.128;2023-12-29T06:18:52;100430.97;;;6.55;75.47
83140;BME280;73027;54.208;19.128;2023-12-29T06:21:18;100439.53;;;6.54;75.45
83140;BME280;73027;54.208;19.128;2023-12-29T06:23:44;100425.97;;;6.50;75.80
83140;BME280;73027;54.208;19.128;2023-12-29T06:26:17;100404.56;;;6.53;75.63
83140;BME280;73027;54.208;19.128;2023-12-29T06:28:43;100417.59;;;6.42;75.79
83140;BME280;73027;54.208;19.128;2023-12-29T06:31:09;100430.47;;;6.39;76.37
83140;BME280;73027;54.208;19.128;2023-12-29T06:33:35;100431.34;;;6.38;76.31
83140;BME280;73027;54.208;19.128;2023-12-29T06:36:00;100428.00;;;6.36;76.10
83140;BME280;73027;54.208;19.128;2023-12-29T06:38:26;100420.25;;;6.39;76.20
83140;BME280;73027;54.208;19.128;2023-12-29T06:40:51;100428.66;;;6.44;76.12
83140;BME280;73027;54.208;19.128;2023-12-29T06:43:17;100409.69;;;6.53;76.32
83140;BME280;73027;54.208;19.128;2023-12-29T06:45:42;100418.94;;;6.60;76.05
83140;BME280;73027;54.208;19.128;2023-12-29T06:48:08;100418.16;;;6.56;75.31
83140;BME280;73027;54.208;19.128;2023-12-29T06:50:33;100406.91;;;6.63;76.02
83140;BME280;73027;54.208;19.128;2023-12-29T06:52:59;100400.94;;;6.63;74.92
83140;BME280;73027;54.208;19.128;2023-12-29T06:55:25;100395.72;;;6.67;75.28
83140;BME280;73027;54.208;19.128;2023-12-29T06:57:51;100410.94;;;6.72;75.29
83140;BME280;73027;54.208;19.128;2023-12-29T07:00:16;100419.47;;;6.72;75.34
83140;BME280;73027;54.208;19.128;2023-12-29T07:02:42;100414.31;;;6.74;74.85
83140;BME280;73027;54.208;19.128;2023-12-29T07:05:07;100406.00;;;6.64;75.22
83140;BME280;73027;54.208;19.128;2023-12-29T07:07:35;100401.81;;;6.62;74.59
83140;BME280;73027;54.208;19.128;2023-12-29T07:10:00;100398.31;;;6.66;75.65
83140;BME280;73027;54.208;19.128;2023-12-29T07:12:26;100392.03;;;6.78;75.62
83140;BME280;73027;54.208;19.128;2023-12-29T07:14:52;100391.88;;;6.84;75.30
83140;BME280;73027;54.208;19.128;2023-12-29T07:17:17;100385.97;;;6.83;74.58
83140;BME280;73027;54.208;19.128;2023-12-29T07:19:42;100397.81;;;6.86;74.46
83140;BME280;73027;54.208;19.128;2023-12-29T07:22:08;100385.03;;;6.86;75.20
83140;BME280;73027;54.208;19.128;2023-12-29T07:24:35;100386.63;;;6.90;74.85
83140;BME280;73027;54.208;19.128;2023-12-29T07:27:01;100398.56;;;6.91;74.79
83140;BME280;73027;54.208;19.128;2023-12-29T07:29:27;100409.00;;;6.82;74.14
83140;BME280;73027;54.208;19.128;2023-12-29T07:31:53;100403.88;;;6.83;75.44
83140;BME280;73027;54.208;19.128;2023-12-29T07:34:19;100386.91;;;6.79;75.31
83140;BME280;73027;54.208;19.128;2023-12-29T07:36:44;100381.78;;;6.79;75.17
83140;BME280;73027;54.208;19.128;2023-12-29T07:39:10;100383.50;;;6.79;75.13
83140;BME280;73027;54.208;19.128;2023-12-29T07:41:40;100369.75;;;6.83;75.58
83140;BME280;73027;54.208;19.128;2023-12-29T07:44:06;100386.66;;;6.88;75.21
83140;BME280;73027;54.208;19.128;2023-12-29T07:46:32;100389.94;;;6.95;75.10
83140;BME280;73027;54.208;19.128;2023-12-29T07:48:57;100384.84;;;6.93;74.83
83140;BME280;73027;54.208;19.128;2023-12-29T07:51:22;100375.53;;;6.91;74.54
83140;BME280;73027;54.208;19.128;2023-12-29T07:53:48;100374.59;;;6.93;74.48
83140;BME280;73027;54.208;19.128;2023-12-29T07:56:14;100373.00;;;6.88;75.12
83140;BME280;73027;54.208;19.128;2023-12-29T07:58:39;100365.47;;;6.83;75.53
83140;BME280;73027;54.208;19.128;2023-12-29T08:01:05;100380.00;;;6.83;75.61
83140;BME280;73027;54.208;19.128;2023-12-29T08:03:30;100368.13;;;6.79;75.97
83140;BME280;73027;54.208;19.128;2023-12-29T08:05:56;100363.16;;;6.72;76.46
83140;BME280;73027;54.208;19.128;2023-12-29T08:08:21;100384.63;;;6.67;77.06
83140;BME280;73027;54.208;19.128;2023-12-29T08:10:47;100366.53;;;6.75;77.24
83140;BME280;73027;54.208;19.128;2023-12-29T08:13:12;100368.09;;;6.80;76.99
83140;BME280;73027;54.208;19.128;2023-12-29T08:15:38;100368.91;;;6.82;77.09
83140;BME280;73027;54.208;19.128;2023-12-29T08:18:04;100358.41;;;6.91;76.62
83140;BME280;73027;54.208;19.128;2023-12-29T08:20:29;100349.75;;;6.97;76.56
83140;BME280;73027;54.208;19.128;2023-12-29T08:22:55;100354.66;;;7.06;76.14
83140;BME280;73027;54.208;19.128;2023-12-29T08:25:22;100355.59;;;7.02;75.98
83140;BME280;73027;54.208;19.128;2023-12-29T08:27:48;100355.56;;;7.03;75.99
83140;BME280;73027;54.208;19.128;2023-12-29T08:30:13;100346.84;;;7.10;75.98
83140;BME280;73027;54.208;19.128;2023-12-29T08:32:39;100337.56;;;7.06;75.63
83140;BME280;73027;54.208;19.128;2023-12-29T08:35:04;100358.75;;;7.11;75.76
83140;BME280;73027;54.208;19.128;2023-12-29T08:37:31;100344.34;;;7.07;75.99
83140;BME280;73027;54.208;19.128;2023-12-29T08:39:59;100339.19;;;7.09;75.11
83140;BME280;73027;54.208;19.128;2023-12-29T08:42:24;100333.06;;;7.14;76.01
83140;BME280;73027;54.208;19.128;2023-12-29T08:44:49;100335.59;;;7.16;75.81
83140;BME280;73027;54.208;19.128;2023-12-29T08:47:15;100334.06;;;7.10;76.03
83140;BME280;73027;54.208;19.128;2023-12-29T08:49:40;100328.19;;;7.05;76.07
83140;BME280;73027;54.208;19.128;2023-12-29T08:52:09;100312.78;;;7.07;76.34
83140;BME280;73027;54.208;19.128;2023-12-29T08:54:35;100324.69;;;7.09;76.51
83140;BME280;73027;54.208;19.128;2023-12-29T08:57:02;100317.00;;;7.09;76.19
83140;BME280;73027;54.208;19.128;2023-12-29T08:59:28;100301.78;;;7.03;75.99
83140;BME280;73027;54.208;19.128;2023-12-29T09:01:53;100309.31;;;7.09;76.16
83140;BME280;73027;54.208;19.128;2023-12-29T09:04:19;100302.50;;;7.08;76.91
83140;BME280;73027;54.208;19.128;2023-12-29T09:06:44;100319.66;;;7.06;75.92
83140;BME280;73027;54.208;19.128;2023-12-29T09:09:09;100315.22;;;7.11;76.13
83140;BME280;73027;54.208;19.128;2023-12-29T09:11:38;100315.94;;;7.16;76.34
83140;BME280;73027;54.208;19.128;2023-12-29T09:14:04;100325.34;;;7.16;76.38
83140;BME280;73027;54.208;19.128;2023-12-29T09:16:30;100309.94;;;7.17;76.14
83140;BME280;73027;54.208;19.128;2023-12-29T09:18:55;100302.19;;;7.19;75.84
83140;BME280;73027;54.208;19.128;2023-12-29T09:21:20;100318.28;;;7.26;75.52
83140;BME280;73027;54.208;19.128;2023-12-29T09:23:46;100310.22;;;7.38;75.72
83140;BME280;73027;54.208;19.128;2023-12-29T09:26:12;100305.03;;;7.41;75.36
83140;BME280;73027;54.208;19.128;2023-12-29T09:28:38;100310.84;;;7.46;75.61
83140;BME280;73027;54.208;19.128;2023-12-29T09:31:06;100314.31;;;7.45;75.72
83140;BME280;73027;54.208;19.128;2023-12-29T09:33:32;100326.09;;;7.50;75.42
83140;BME280;73027;54.208;19.128;2023-12-29T09:35:57;100327.75;;;7.53;74.90
83140;BME280;73027;54.208;19.128;2023-12-29T09:38:23;100330.22;;;7.56;74.96
83140;BME280;73027;54.208;19.128;2023-12-29T09:40:48;100340.59;;;7.51;74.82
83140;BME280;73027;54.208;19.128;2023-12-29T09:43:14;100332.91;;;7.51;75.32
83140;BME280;73027;54.208;19.128;2023-12-29T09:45:42;100343.94;;;7.53;75.31
83140;BME280;73027;54.208;19.128;2023-12-29T09:48:11;100352.56;;;7.51;76.25
83140;BME280;73027;54.208;19.128;2023-12-29T09:50:38;100360.28;;;7.49;76.69
83140;BME280;73027;54.208;19.128;2023-12-29T09:53:05;100338.25;;;7.44;77.16
83140;BME280;73027;54.208;19.128;2023-12-29T09:55:32;100347.75;;;7.40;77.89
83140;BME280;73027;54.208;19.128;2023-12-29T09:57:59;100340.91;;;7.41;78.18
83140;BME280;73027;54.208;19.128;2023-12-29T10:00:26;100325.47;;;7.42;78.41
83140;BME280;73027;54.208;19.128;2023-12-29T10:02:52;100335.78;;;7.41;78.92
83140;BME280;73027;54.208;19.128;2023-12-29T10:05:18;100335.91;;;7.36;78.91
83140;BME280;73027;54.208;19.128;2023-12-29T10:07:45;100338.59;;;7.32;79.12
83140;BME280;73027;54.208;19.128;2023-12-29T10:10:14;100335.94;;;7.35;79.59
83140;BME280;73027;54.208;19.128;2023-12-29T10:12:44;100344.38;;;7.38;79.18
83140;BME280;73027;54.208;19.128;2023-12-29T10:15:24;100338.25;;;7.44;79.44
83140;BME280;73027;54.208;19.128;2023-12-29T10:20:45;100331.28;;;7.49;79.03
83140;BME280;73027;54.208;19.128;2023-12-29T10:23:20;100328.56;;;7.53;79.45
83140;BME280;73027;54.208;19.128;2023-12-29T10:25:48;100324.38;;;7.51;79.41
83140;BME280;73027;54.208;19.128;2023-12-29T10:28:16;100322.47;;;7.57;79.37
83140;BME280;73027;54.208;19.128;2023-12-29T10:30:42;100321.50;;;7.61;79.03
83140;BME280;73027;54.208;19.128;2023-12-29T10:33:09;100323.91;;;7.68;78.67
83140;BME280;73027;54.208;19.128;2023-12-29T10:35:35;100311.63;;;7.79;78.45
83140;BME280;73027;54.208;19.128;2023-12-29T10:38:11;100315.03;;;7.79;77.97
83140;BME280;73027;54.208;19.128;2023-12-29T10:40:37;100309.72;;;7.85;77.92
83140;BME280;73027;54.208;19.128;2023-12-29T10:43:03;100295.28;;;7.81;77.40
83140;BME280;73027;54.208;19.128;2023-12-29T10:45:33;100300.09;;;7.92;77.31
83140;BME280;73027;54.208;19.128;2023-12-29T10:48:00;100307.56;;;7.99;77.46
83140;BME280;73027;54.208;19.128;2023-12-29T10:50:26;100314.28;;;8.03;76.98
83140;BME280;73027;54.208;19.128;2023-12-29T10:53:14;100311.81;;;8.00;76.63
83140;BME280;73027;54.208;19.128;2023-12-29T10:55:43;100313.22;;;8.10;76.77
83140;BME280;73027;54.208;19.128;2023-12-29T10:58:08;100304.59;;;8.13;76.50
83140;BME280;73027;54.208;19.128;2023-12-29T11:00:34;100294.81;;;8.24;76.42
83140;BME280;73027;54.208;19.128;2023-12-29T11:02:59;100273.22;;;8.33;75.86
83140;BME280;73027;54.208;19.128;2023-12-29T11:05:28;100268.78;;;8.38;75.53
83140;BME280;73027;54.208;19.128;2023-12-29T11:07:54;100276.13;;;8.48;75.20
83140;BME280;73027;54.208;19.128;2023-12-29T11:10:21;100274.81;;;8.61;75.22
83140;BME280;73027;54.208;19.128;2023-12-29T11:12:48;100285.63;;;8.71;74.73
83140;BME280;73027;54.208;19.128;2023-12-29T11:15:15;100276.91;;;9.00;74.44
83140;BME280;73027;54.208;19.128;2023-12-29T11:17:42;100263.75;;;9.09;73.07
83140;BME280;73027;54.208;19.128;2023-12-29T11:20:15;100261.28;;;9.06;72.46
83140;BME280;73027;54.208;19.128;2023-12-29T11:22:42;100286.13;;;9.30;72.42
83140;BME280;73027;54.208;19.128;2023-12-29T11:25:09;100270.38;;;10.28;70.37
83140;BME280;73027;54.208;19.128;2023-12-29T11:27:35;100274.19;;;13.17;60.46
83140;BME280;73027;54.208;19.128;2023-12-29T11:30:02;100270.25;;;14.21;55.50
83140;BME280;73027;54.208;19.128;2023-12-29T11:35:13;100265.06;;;14.21;57.62
83140;BME280;73027;54.208;19.128;2023-12-29T11:37:47;100267.31;;;15.57;50.11
83140;BME280;73027;54.208;19.128;2023-12-29T11:40:21;100252.56;;;17.15;46.93
83140;BME280;73027;54.208;19.128;2023-12-29T11:42:53;100268.50;;;18.68;41.96
83140;BME280;73027;54.208;19.128;2023-12-29T11:45:30;100257.06;;;19.37;39.27
83140;BME280;73027;54.208;19.128;2023-12-29T11:48:01;100253.88;;;20.41;37.95
83140;BME280;73027;54.208;19.128;2023-12-29T11:50:37;100274.41;;;19.60;36.58
83140;BME280;73027;54.208;19.128;2023-12-29T11:53:05;100289.53;;;16.56;43.08
83140;BME280;73027;54.208;19.128;2023-12-29T11:55:37;100275.13;;;18.13;42.07
83140;BME280;73027;54.208;19.128;2023-12-29T11:58:04;100288.41;;;16.20;43.11
83140;BME280;73027;54.208;19.128;2023-12-29T12:00:45;100296.00;;;14.54;49.67
83140;BME280;73027;54.208;19.128;2023-12-29T12:03:30;100301.31;;;14.37;47.68
83140;BME280;73027;54.208;19.128;2023-12-29T12:05:59;100304.84;;;13.24;52.43
83140;BME280;73027;54.208;19.128;2023-12-29T12:08:32;100312.47;;;13.43;54.30
83140;BME280;73027;54.208;19.128;2023-12-29T12:13:59;100305.66;;;13.58;52.12
83140;BME280;73027;54.208;19.128;2023-12-29T12:19:12;100294.25;;;11.90;56.24
83140;BME280;73027;54.208;19.128;2023-12-29T12:21:38;100286.19;;;11.40;58.77
83140;BME280;73027;54.208;19.128;2023-12-29T12:24:04;100285.94;;;12.02;57.90
83140;BME280;73027;54.208;19.128;2023-12-29T12:26:31;100279.41;;;13.48;53.57
83140;BME280;73027;54.208;19.128;2023-12-29T12:28:57;100283.25;;;15.23;48.80
83140;BME280;73027;54.208;19.128;2023-12-29T12:31:23;100262.28;;;14.24;49.28
83140;BME280;73027;54.208;19.128;2023-12-29T12:33:58;100277.03;;;12.95;52.83
83140;BME280;73027;54.208;19.128;2023-12-29T12:36:25;100295.59;;;11.80;56.41
83140;BME280;73027;54.208;19.128;2023-12-29T12:38:56;100297.66;;;10.74;60.13
83140;BME280;73027;54.208;19.128;2023-12-29T12:41:22;100308.53;;;10.18;62.75
83140;BME280;73027;54.208;19.128;2023-12-29T12:46:25;100320.75;;;9.67;65.32
83140;BME280;73027;54.208;19.128;2023-12-29T12:48:52;100303.31;;;9.51;66.07
83140;BME280;73027;54.208;19.128;2023-12-29T12:51:19;100301.28;;;9.38;66.48
83140;BME280;73027;54.208;19.128;2023-12-29T12:53:45;100290.69;;;9.22;67.30
83140;BME280;73027;54.208;19.128;2023-12-29T12:56:13;100302.91;;;9.16;68.00
83140;BME280;73027;54.208;19.128;2023-12-29T12:58:39;100291.13;;;9.10;68.11
83140;BME280;73027;54.208;19.128;2023-12-29T13:01:05;100295.31;;;9.13;68.45